createdAt,value
2017-10-04T00:00:43.897Z,2.70
2017-10-04T00:03:11.358Z,2.90
2017-10-04T00:05:38.813Z,2.00
2017-10-04T00:08:06.272Z,3.20
2017-10-04T00:10:33.739Z,2.73
2017-10-04T00:13:01.191Z,2.33
2017-10-04T00:15:28.634Z,2.80
2017-10-04T00:17:56.104Z,2.40
2017-10-04T00:20:23.545Z,2.80
2017-10-04T00:22:51.000Z,2.57
2017-10-04T00:25:18.447Z,2.40
2017-10-04T00:27:45.975Z,2.17
2017-10-04T00:30:14.189Z,2.53
2017-10-04T00:32:42.413Z,2.47
2017-10-04T00:35:09.862Z,2.13
2017-10-04T00:37:37.314Z,2.40
2017-10-04T00:40:04.769Z,2.50
2017-10-04T00:42:32.418Z,3.00
2017-10-04T00:44:59.870Z,2.70
2017-10-04T00:47:27.342Z,2.60
2017-10-04T00:49:54.789Z,2.20
2017-10-04T00:52:22.258Z,3.10
2017-10-04T00:54:49.737Z,2.40
2017-10-04T00:57:17.205Z,2.90
2017-10-04T00:59:44.657Z,2.33
2017-10-04T01:02:12.883Z,2.53
2017-10-04T01:04:40.337Z,3.13
2017-10-04T01:07:07.807Z,2.80
2017-10-04T01:09:35.296Z,2.10
2017-10-04T01:12:03.529Z,2.40
2017-10-04T01:14:30.989Z,2.90
2017-10-04T01:16:58.444Z,2.97
2017-10-04T01:19:25.897Z,2.90
2017-10-04T01:21:53.365Z,2.80
2017-10-04T01:24:20.818Z,3.00
2017-10-04T01:26:48.265Z,2.50
2017-10-04T01:29:15.725Z,2.70
2017-10-04T01:31:43.190Z,2.23
2017-10-04T01:34:10.647Z,2.40
2017-10-04T01:36:38.094Z,2.27
2017-10-04T01:39:05.571Z,2.50
2017-10-04T01:41:38.946Z,2.50
2017-10-04T01:44:06.637Z,2.27
2017-10-04T01:46:34.074Z,2.40
2017-10-04T01:49:01.537Z,2.83
2017-10-04T01:51:28.986Z,2.50
2017-10-04T01:53:56.442Z,2.40
2017-10-04T01:56:23.906Z,2.87
2017-10-04T01:58:51.363Z,2.60
2017-10-04T02:01:18.819Z,3.30
2017-10-04T02:03:46.275Z,4.07
2017-10-04T02:06:13.733Z,4.10
2017-10-04T02:08:41.194Z,3.23
2017-10-04T02:11:08.645Z,2.80
2017-10-04T02:13:36.103Z,2.73
2017-10-04T02:16:03.563Z,2.53
2017-10-04T02:18:31.009Z,2.87
2017-10-04T02:20:58.466Z,2.30
2017-10-04T02:23:25.926Z,2.80
2017-10-04T02:25:53.385Z,3.00
2017-10-04T02:28:20.839Z,2.50
2017-10-04T02:30:48.362Z,2.80
2017-10-04T02:33:15.819Z,2.97
2017-10-04T02:35:44.041Z,2.80
2017-10-04T02:38:11.507Z,3.20
2017-10-04T02:40:38.978Z,3.13
2017-10-04T02:43:07.942Z,4.17
2017-10-04T02:45:35.397Z,3.00
2017-10-04T02:48:02.850Z,2.87
2017-10-04T02:50:30.315Z,2.70
2017-10-04T02:52:57.774Z,2.73
2017-10-04T02:55:25.243Z,2.70
2017-10-04T02:57:52.693Z,3.50
2017-10-04T03:00:20.194Z,2.97
2017-10-04T03:02:48.432Z,2.93
2017-10-04T03:05:15.914Z,2.97
2017-10-04T03:07:44.890Z,2.50
2017-10-04T03:10:12.346Z,3.33
2017-10-04T03:12:39.817Z,2.80
2017-10-04T03:15:07.286Z,3.00
2017-10-04T03:17:34.750Z,3.40
2017-10-04T03:20:02.977Z,3.00
2017-10-04T03:22:30.470Z,2.77
2017-10-04T03:24:57.936Z,2.80
2017-10-04T03:27:25.402Z,3.20
2017-10-04T03:29:52.874Z,3.17
2017-10-04T03:32:20.330Z,3.10
2017-10-04T03:34:47.777Z,3.10
2017-10-04T03:37:15.247Z,3.53
2017-10-04T03:39:42.700Z,3.17
2017-10-04T03:42:10.158Z,3.53
2017-10-04T03:44:37.609Z,2.63
2017-10-04T03:47:05.057Z,2.90
2017-10-04T03:49:33.290Z,4.27
2017-10-04T03:52:00.750Z,3.57
2017-10-04T03:54:28.206Z,2.80
2017-10-04T03:56:55.687Z,3.30
2017-10-04T03:59:23.174Z,3.20
2017-10-04T04:01:50.633Z,3.23
2017-10-04T04:04:18.081Z,3.30
2017-10-04T04:06:45.553Z,3.10
2017-10-04T04:09:13.797Z,2.93
2017-10-04T04:11:41.267Z,3.47
2017-10-04T04:14:08.722Z,3.00
2017-10-04T04:16:36.959Z,2.90
2017-10-04T04:19:04.414Z,2.93
2017-10-04T04:21:31.874Z,3.20
2017-10-04T04:23:59.345Z,2.47
2017-10-04T04:26:26.797Z,3.20
2017-10-04T04:28:54.277Z,3.00
2017-10-04T04:31:24.963Z,3.03
2017-10-04T04:33:52.428Z,3.53
2017-10-04T04:39:10.737Z,3.20
2017-10-04T04:41:38.965Z,3.10
2017-10-04T04:44:07.202Z,3.10
2017-10-04T04:46:34.670Z,2.37
2017-10-04T04:49:02.126Z,3.17
2017-10-04T04:51:30.357Z,2.50
2017-10-04T04:53:57.829Z,2.80
2017-10-04T04:56:25.290Z,3.50
2017-10-04T04:58:52.750Z,2.53
2017-10-04T05:01:20.185Z,3.13
2017-10-04T05:03:47.641Z,2.83
2017-10-04T05:06:15.109Z,3.40
2017-10-04T05:08:42.567Z,2.80
2017-10-04T05:11:10.038Z,2.80
2017-10-04T05:13:38.273Z,2.57
2017-10-04T05:16:05.732Z,3.10
2017-10-04T05:18:33.193Z,3.00
2017-10-04T05:21:00.653Z,2.50
2017-10-04T05:23:28.106Z,3.20
2017-10-04T05:25:55.577Z,3.17
2017-10-04T05:28:23.035Z,3.30
2017-10-04T05:30:50.507Z,4.73
2017-10-04T05:33:17.938Z,6.20
2017-10-04T05:35:45.391Z,4.67
2017-10-04T05:38:12.849Z,3.93
2017-10-04T05:40:40.293Z,3.17
2017-10-04T05:43:07.746Z,2.83
2017-10-04T05:45:35.200Z,3.40
2017-10-04T05:48:02.674Z,3.30
2017-10-04T05:50:30.125Z,3.20
2017-10-04T05:52:58.349Z,3.20
2017-10-04T05:55:26.566Z,3.50
2017-10-04T05:57:54.801Z,5.23
2017-10-04T06:00:23.023Z,4.73
2017-10-04T06:02:50.491Z,3.47
2017-10-04T06:05:17.937Z,3.17
2017-10-04T06:07:45.410Z,3.50
2017-10-04T06:10:13.629Z,3.17
2017-10-04T06:12:41.088Z,3.50
2017-10-04T06:15:08.537Z,2.80
2017-10-04T06:17:36.006Z,3.40
2017-10-04T06:20:03.459Z,3.73
2017-10-04T06:22:31.683Z,2.80
2017-10-04T06:24:59.146Z,3.03
2017-10-04T06:27:26.601Z,3.63
2017-10-04T06:29:54.832Z,2.90
2017-10-04T06:32:22.297Z,3.27
2017-10-04T06:34:49.760Z,3.20
2017-10-04T06:37:17.975Z,3.83
2017-10-04T06:39:45.434Z,3.50
2017-10-04T06:42:12.886Z,3.30
2017-10-04T06:44:40.330Z,3.20
2017-10-04T06:47:07.809Z,3.17
2017-10-04T06:49:35.265Z,3.10
2017-10-04T06:52:02.722Z,3.33
2017-10-04T06:54:30.186Z,3.47
2017-10-04T06:56:58.403Z,3.10
2017-10-04T06:59:26.617Z,3.73
2017-10-04T07:01:54.075Z,3.40
2017-10-04T07:04:21.530Z,3.30
2017-10-04T07:06:48.979Z,3.53
2017-10-04T07:09:16.453Z,3.40
2017-10-04T07:11:43.903Z,3.60
2017-10-04T07:14:11.373Z,4.07
2017-10-04T07:16:38.830Z,3.40
2017-10-04T07:19:06.274Z,3.40
2017-10-04T07:21:34.511Z,3.17
2017-10-04T07:24:01.974Z,3.80
2017-10-04T07:26:29.450Z,3.90
2017-10-04T07:28:56.915Z,3.90
2017-10-04T07:31:24.388Z,3.20
2017-10-04T07:33:51.845Z,4.33
2017-10-04T07:36:19.301Z,3.97
2017-10-04T07:38:46.758Z,3.73
2017-10-04T07:41:14.214Z,3.60
2017-10-04T07:43:41.670Z,4.00
2017-10-04T07:46:09.138Z,3.83
2017-10-04T07:48:36.586Z,4.23
2017-10-04T07:51:04.079Z,4.43
2017-10-04T07:53:31.534Z,3.43
2017-10-04T07:55:59.010Z,4.07
2017-10-04T07:58:27.221Z,5.07
2017-10-04T08:00:54.685Z,3.20
2017-10-04T08:03:22.679Z,3.60
2017-10-04T08:05:50.121Z,2.87
2017-10-04T08:08:18.356Z,4.43
2017-10-04T08:10:45.831Z,3.73
2017-10-04T08:13:14.085Z,3.53
2017-10-04T08:15:42.306Z,3.60
2017-10-04T08:18:09.762Z,3.60
2017-10-04T08:20:37.217Z,3.50
2017-10-04T08:25:40.123Z,3.10
2017-10-04T08:28:07.590Z,3.10
2017-10-04T08:30:35.050Z,3.40
2017-10-04T08:33:03.294Z,3.47
2017-10-04T08:35:30.755Z,3.47
2017-10-04T08:37:58.222Z,3.23
2017-10-04T08:40:25.696Z,3.10
2017-10-04T08:42:53.153Z,2.80
2017-10-04T08:45:20.613Z,3.53
2017-10-04T08:47:55.577Z,3.53
2017-10-04T08:50:23.828Z,3.07
2017-10-04T08:52:52.070Z,3.00
2017-10-04T08:55:19.510Z,2.83
2017-10-04T08:57:46.973Z,3.03
2017-10-04T09:00:14.434Z,3.33
2017-10-04T09:02:42.650Z,3.40
2017-10-04T09:08:20.221Z,3.63
2017-10-04T09:10:47.681Z,2.80
2017-10-04T09:13:15.163Z,3.20
2017-10-04T09:15:42.618Z,3.23
2017-10-04T09:18:10.073Z,3.07
2017-10-04T09:20:37.546Z,2.80
2017-10-04T09:23:05.004Z,3.07
2017-10-04T09:25:32.469Z,2.80
2017-10-04T09:28:01.445Z,2.27
2017-10-04T09:30:29.669Z,2.37
2017-10-04T09:32:57.112Z,2.90
2017-10-04T09:35:24.590Z,2.60
2017-10-04T09:37:52.050Z,2.70
2017-10-04T09:40:20.273Z,3.23
2017-10-04T09:42:47.730Z,2.70
2017-10-04T09:45:15.985Z,2.63
2017-10-04T09:47:44.202Z,2.27
2017-10-04T09:50:11.831Z,2.47
2017-10-04T09:52:39.280Z,2.43
2017-10-04T09:55:06.757Z,2.13
2017-10-04T09:57:34.244Z,2.50
2017-10-04T10:00:02.474Z,2.33
2017-10-04T10:02:30.693Z,2.17
2017-10-04T10:04:58.918Z,2.53
2017-10-04T10:07:26.378Z,2.50
2017-10-04T10:09:53.865Z,2.40
2017-10-04T10:12:21.305Z,2.50
2017-10-04T10:14:48.769Z,3.27
2017-10-04T10:17:16.246Z,2.47
2017-10-04T10:19:44.473Z,3.10
2017-10-04T10:22:11.933Z,3.27
2017-10-04T10:24:39.390Z,2.47
2017-10-04T10:27:06.870Z,3.23
2017-10-04T10:29:34.322Z,2.37
2017-10-04T10:32:01.798Z,2.97
2017-10-04T10:34:29.253Z,2.27
2017-10-04T10:36:56.801Z,2.60
2017-10-04T10:39:24.254Z,2.77
2017-10-04T10:41:52.477Z,3.23
2017-10-04T10:44:20.701Z,2.20
2017-10-04T10:46:48.154Z,2.80
2017-10-04T10:49:15.604Z,1.80
2017-10-04T10:51:43.081Z,2.50
2017-10-04T10:54:10.542Z,2.43
2017-10-04T10:56:37.994Z,2.83
2017-10-04T10:59:06.221Z,2.80
2017-10-04T11:01:33.674Z,2.70
2017-10-04T11:04:01.908Z,2.60
2017-10-04T11:06:29.366Z,2.60
2017-10-04T11:08:56.826Z,2.80
2017-10-04T11:11:24.285Z,2.20
2017-10-04T11:13:52.543Z,2.03
2017-10-04T11:16:19.990Z,2.23
2017-10-04T11:18:48.213Z,2.13
2017-10-04T11:21:16.434Z,2.63
2017-10-04T11:23:43.903Z,3.07
2017-10-04T11:26:12.133Z,2.60
2017-10-04T11:28:40.355Z,2.17
2017-10-04T11:31:07.805Z,2.97
2017-10-04T11:33:35.255Z,2.40
2017-10-04T11:36:02.716Z,2.03
2017-10-04T11:38:30.166Z,2.47
2017-10-04T11:40:57.629Z,2.33
2017-10-04T11:43:25.081Z,2.70
2017-10-04T11:45:52.548Z,2.33
2017-10-04T11:48:20.763Z,2.60
2017-10-04T11:50:48.211Z,2.23
2017-10-04T11:53:15.704Z,1.97
2017-10-04T11:55:43.920Z,2.30
2017-10-04T11:58:11.372Z,3.27
2017-10-04T12:00:38.834Z,2.67
2017-10-04T12:03:06.290Z,2.30
2017-10-04T12:05:33.759Z,2.03
2017-10-04T12:08:01.214Z,2.50
2017-10-04T12:10:28.684Z,1.80
2017-10-04T12:12:56.141Z,2.23
2017-10-04T12:15:23.581Z,2.37
2017-10-04T12:17:51.041Z,2.27
2017-10-04T12:20:19.249Z,2.23
2017-10-04T12:22:47.483Z,2.43
2017-10-04T12:25:14.935Z,2.27
2017-10-04T12:27:42.399Z,2.77
2017-10-04T12:30:09.853Z,2.30
2017-10-04T12:32:37.314Z,2.40
2017-10-04T12:35:04.785Z,2.30
2017-10-04T12:37:32.237Z,2.17
2017-10-04T12:40:00.451Z,2.50
2017-10-04T12:42:28.668Z,2.20
2017-10-04T12:44:56.881Z,2.73
2017-10-04T12:47:24.332Z,2.10
2017-10-04T12:49:51.785Z,2.63
2017-10-04T12:52:20.062Z,2.27
2017-10-04T12:54:47.518Z,1.90
2017-10-04T12:57:14.982Z,2.03
2017-10-04T12:59:42.438Z,2.20
2017-10-04T13:02:09.886Z,2.30
2017-10-04T13:04:37.337Z,1.70
2017-10-04T13:07:04.810Z,1.93
2017-10-04T13:09:33.025Z,2.10
2017-10-04T13:12:00.506Z,1.93
2017-10-04T13:14:27.946Z,2.17
2017-10-04T13:16:55.425Z,2.53
2017-10-04T13:19:22.884Z,2.67
2017-10-04T13:21:50.324Z,2.47
2017-10-04T13:24:17.804Z,2.57
2017-10-04T13:26:45.260Z,2.30
2017-10-04T13:29:12.729Z,2.60
2017-10-04T13:31:40.941Z,2.93
2017-10-04T13:34:09.190Z,3.20
2017-10-04T13:36:36.649Z,2.60
2017-10-04T13:39:04.880Z,2.80
2017-10-04T13:41:32.328Z,2.70
2017-10-04T13:43:59.819Z,2.63
2017-10-04T13:46:27.263Z,2.13
2017-10-04T13:48:54.738Z,2.77
2017-10-04T13:51:22.217Z,2.07
2017-10-04T13:53:50.450Z,1.90
2017-10-04T13:56:17.924Z,1.83
2017-10-04T13:58:45.385Z,2.23
2017-10-04T14:01:12.859Z,2.07
2017-10-04T14:03:40.401Z,2.00
2017-10-04T14:06:08.609Z,1.87
2017-10-04T14:08:36.823Z,2.07
2017-10-04T14:11:04.297Z,2.27
2017-10-04T14:13:31.760Z,1.50
2017-10-04T14:15:59.236Z,1.80
2017-10-04T14:18:26.693Z,1.80
2017-10-04T14:20:54.166Z,2.20
2017-10-04T14:23:22.377Z,2.10
2017-10-04T14:25:50.620Z,2.07
2017-10-04T14:28:18.061Z,1.77
2017-10-04T14:30:45.521Z,2.87
2017-10-04T14:33:12.989Z,1.90
2017-10-04T14:35:40.449Z,1.90
2017-10-04T14:38:07.907Z,1.80
2017-10-04T14:40:35.362Z,2.00
2017-10-04T14:43:02.817Z,1.93
2017-10-04T14:45:30.273Z,1.93
2017-10-04T14:47:57.737Z,2.00
2017-10-04T14:50:25.182Z,2.60
2017-10-04T14:52:52.641Z,1.50
2017-10-04T14:55:20.107Z,2.30
2017-10-04T14:57:47.565Z,2.60
2017-10-04T15:00:15.033Z,2.10
2017-10-04T15:02:42.498Z,2.17
2017-10-04T15:05:10.709Z,2.40
2017-10-04T15:07:38.161Z,1.80
2017-10-04T15:10:05.615Z,2.03
2017-10-04T15:12:33.842Z,2.23
2017-10-04T15:15:01.301Z,2.27
2017-10-04T15:17:28.755Z,1.90
2017-10-04T15:19:56.212Z,1.87
2017-10-04T15:22:23.678Z,1.90
2017-10-04T15:24:51.902Z,1.90
2017-10-04T15:27:19.355Z,2.40
2017-10-04T15:29:46.809Z,2.30
2017-10-04T15:32:14.269Z,3.30
2017-10-04T15:34:41.723Z,1.90
2017-10-04T15:37:09.181Z,2.50
2017-10-04T15:39:37.405Z,2.90
2017-10-04T15:42:04.879Z,2.80
2017-10-04T15:44:32.321Z,3.33
2017-10-04T15:46:59.806Z,3.10
2017-10-04T15:49:28.032Z,3.50
2017-10-04T15:51:55.477Z,3.40
2017-10-04T15:54:23.707Z,3.20
2017-10-04T15:56:51.920Z,2.83
2017-10-04T15:59:19.381Z,2.87
2017-10-04T16:01:46.846Z,3.03
2017-10-04T16:04:14.307Z,2.63
2017-10-04T16:06:41.755Z,2.50
2017-10-04T16:09:09.210Z,2.40
2017-10-04T16:11:37.430Z,2.17
2017-10-04T16:14:04.887Z,2.20
2017-10-04T16:16:32.329Z,3.00
2017-10-04T16:18:59.782Z,2.57
2017-10-04T16:21:27.226Z,2.00
2017-10-04T16:23:54.702Z,2.37
2017-10-04T16:26:22.155Z,2.20
2017-10-04T16:28:49.613Z,2.30
2017-10-04T16:31:17.062Z,2.43
2017-10-04T16:33:44.526Z,2.30
2017-10-04T16:36:11.983Z,2.50
2017-10-04T16:38:39.441Z,2.30
2017-10-04T16:41:06.893Z,2.20
2017-10-04T16:43:34.361Z,2.00
2017-10-04T16:46:01.820Z,2.20
2017-10-04T16:48:29.275Z,2.20
2017-10-04T16:50:56.722Z,1.93
2017-10-04T16:53:24.190Z,2.20
2017-10-04T16:55:52.420Z,1.53
2017-10-04T16:58:19.882Z,2.70
2017-10-04T17:00:47.345Z,2.50
2017-10-04T17:03:15.569Z,2.30
2017-10-04T17:05:43.790Z,2.30
2017-10-04T17:08:11.591Z,2.93
2017-10-04T17:10:39.047Z,2.37
2017-10-04T17:13:07.998Z,2.23
2017-10-04T17:15:35.456Z,2.50
2017-10-04T17:18:02.910Z,2.23
2017-10-04T17:20:30.367Z,2.27
2017-10-04T17:22:57.813Z,2.80
2017-10-04T17:25:26.054Z,2.70
2017-10-04T17:27:53.497Z,2.33
2017-10-04T17:30:20.945Z,2.73
2017-10-04T17:32:48.406Z,2.10
2017-10-04T17:35:16.617Z,3.30
2017-10-04T17:37:44.849Z,2.93
2017-10-04T17:40:12.297Z,2.60
2017-10-04T17:42:39.778Z,2.60
2017-10-04T17:45:07.250Z,2.73
2017-10-04T17:47:34.708Z,2.30
2017-10-04T17:50:02.159Z,2.00
2017-10-04T17:52:29.605Z,2.63
2017-10-04T17:54:57.057Z,2.43
2017-10-04T17:57:26.036Z,2.60
2017-10-04T17:59:55.311Z,2.60
2017-10-04T18:02:22.906Z,2.77
2017-10-04T18:04:50.345Z,2.50
2017-10-04T18:07:17.873Z,2.93
2017-10-04T18:09:46.279Z,2.77
2017-10-04T18:12:13.747Z,2.83
2017-10-04T18:14:41.958Z,3.67
2017-10-04T18:17:09.401Z,3.10
2017-10-04T18:19:36.857Z,2.97
2017-10-04T18:22:04.335Z,3.80
2017-10-04T18:24:32.565Z,3.27
2017-10-04T18:27:00.020Z,3.30
2017-10-04T18:29:27.473Z,3.67
2017-10-04T18:31:54.932Z,3.30
2017-10-04T18:34:22.390Z,3.13
2017-10-04T18:36:49.846Z,3.53
2017-10-04T18:39:17.305Z,3.50
2017-10-04T18:41:44.755Z,3.83
2017-10-04T18:44:12.214Z,3.60
2017-10-04T18:46:39.670Z,3.70
2017-10-04T18:49:07.912Z,3.40
2017-10-04T18:51:36.154Z,3.67
2017-10-04T18:54:03.606Z,3.60
2017-10-04T18:56:31.049Z,4.20
2017-10-04T18:58:58.516Z,3.27
2017-10-04T19:01:25.966Z,3.53
2017-10-04T19:03:53.417Z,3.70
2017-10-04T19:06:20.866Z,3.30
2017-10-04T19:08:48.334Z,3.57
2017-10-04T19:11:15.786Z,3.30
2017-10-04T19:13:43.237Z,3.80
2017-10-04T19:16:10.698Z,3.93
2017-10-04T19:18:38.152Z,3.53
2017-10-04T19:21:05.609Z,3.77
2017-10-04T19:23:33.075Z,3.57
2017-10-04T19:26:00.521Z,3.17
2017-10-04T19:28:28.773Z,3.43
2017-10-04T19:30:56.247Z,3.90
2017-10-04T19:33:23.694Z,3.87
2017-10-04T19:35:51.155Z,3.20
2017-10-04T19:38:18.602Z,3.20
2017-10-04T19:40:46.061Z,3.77
2017-10-04T19:43:13.513Z,3.33
2017-10-04T19:45:41.730Z,3.57
2017-10-04T19:48:09.182Z,3.00
2017-10-04T19:50:36.637Z,2.90
2017-10-04T19:53:04.089Z,3.00
2017-10-04T19:55:31.567Z,3.30
2017-10-04T19:57:59.023Z,2.90
2017-10-04T20:00:26.481Z,2.63
2017-10-04T20:02:53.945Z,3.10
2017-10-04T20:05:21.407Z,3.17
2017-10-04T20:07:48.983Z,3.27
2017-10-04T20:10:16.502Z,2.80
2017-10-04T20:12:43.958Z,2.20
2017-10-04T20:15:12.181Z,3.50
2017-10-04T20:17:40.402Z,2.93
2017-10-04T20:20:07.858Z,2.57
2017-10-04T20:22:36.310Z,3.10
2017-10-04T20:25:04.829Z,2.60
2017-10-04T20:27:32.290Z,2.97
2017-10-04T20:29:59.739Z,2.90
2017-10-04T20:32:27.364Z,3.00
2017-10-04T20:34:55.793Z,2.97
2017-10-04T20:37:24.186Z,2.60
2017-10-04T20:39:51.638Z,3.00
2017-10-04T20:42:19.098Z,3.10
2017-10-04T20:44:46.561Z,2.70
2017-10-04T20:47:14.122Z,2.73
2017-10-04T20:49:41.570Z,3.10
2017-10-04T20:52:09.030Z,2.37
2017-10-04T20:54:36.481Z,2.90
2017-10-04T20:57:03.934Z,2.20
2017-10-04T20:59:32.172Z,2.80
2017-10-04T21:01:59.605Z,3.00
2017-10-04T21:04:27.825Z,2.43
2017-10-04T21:06:55.269Z,2.47
2017-10-04T21:09:24.423Z,2.43
2017-10-04T21:11:51.905Z,2.40
2017-10-04T21:14:19.351Z,2.13
2017-10-04T21:16:47.585Z,2.30
2017-10-04T21:19:15.042Z,2.40
2017-10-04T21:21:42.494Z,2.53
2017-10-04T21:24:09.963Z,2.30
2017-10-04T21:26:37.410Z,2.50
2017-10-04T21:29:05.638Z,2.33
2017-10-04T21:31:33.862Z,2.27
2017-10-04T21:34:01.321Z,2.00
2017-10-04T21:36:28.763Z,2.30
2017-10-04T21:38:56.217Z,2.30
2017-10-04T21:41:23.670Z,2.27
2017-10-04T21:43:51.142Z,2.37
2017-10-04T21:46:18.605Z,2.17
2017-10-04T21:48:46.811Z,2.30
2017-10-04T21:51:14.275Z,2.53
2017-10-04T21:53:41.709Z,2.30
2017-10-04T21:56:09.162Z,2.40
2017-10-04T21:58:36.614Z,2.87
2017-10-04T22:01:04.077Z,1.97
2017-10-04T22:03:31.556Z,2.13
2017-10-04T22:05:59.022Z,1.63
2017-10-04T22:08:26.467Z,2.07
2017-10-04T22:10:53.917Z,2.40
2017-10-04T22:13:21.397Z,2.23
2017-10-04T22:15:49.629Z,2.17
2017-10-04T22:18:17.093Z,2.00
2017-10-04T22:20:44.553Z,2.57
2017-10-04T22:23:12.773Z,2.17
2017-10-04T22:25:41.018Z,1.90
2017-10-04T22:28:08.458Z,2.00
2017-10-04T22:30:35.917Z,1.60
2017-10-04T22:33:04.125Z,1.87
2017-10-04T22:35:31.621Z,2.17
2017-10-04T22:37:59.066Z,2.03
2017-10-04T22:40:27.305Z,2.13
2017-10-04T22:42:54.781Z,1.90
2017-10-04T22:45:23.009Z,2.20
2017-10-04T22:47:50.466Z,1.90
2017-10-04T22:50:17.917Z,2.00
2017-10-04T22:52:45.386Z,1.93
2017-10-04T22:55:12.862Z,2.13
2017-10-04T22:57:41.152Z,2.20
2017-10-04T23:00:08.602Z,2.33
2017-10-04T23:02:36.060Z,1.90
2017-10-04T23:05:03.502Z,2.47
2017-10-04T23:07:30.966Z,2.03
2017-10-04T23:09:58.433Z,2.33
2017-10-04T23:12:25.883Z,2.00
2017-10-04T23:14:53.325Z,1.93
2017-10-04T23:17:20.782Z,1.80
2017-10-04T23:19:48.241Z,1.63
2017-10-04T23:22:15.722Z,1.90
2017-10-04T23:24:43.221Z,2.40
2017-10-04T23:27:10.673Z,1.93
2017-10-04T23:29:38.129Z,1.50
2017-10-04T23:32:05.604Z,1.90
2017-10-04T23:34:33.806Z,1.90
2017-10-04T23:37:01.270Z,1.80
2017-10-04T23:39:28.733Z,2.00
2017-10-04T23:41:56.206Z,1.90
2017-10-04T23:44:24.453Z,1.63
2017-10-04T23:46:51.906Z,2.07
2017-10-04T23:49:19.361Z,2.27
2017-10-04T23:51:46.841Z,1.77
2017-10-04T23:54:14.285Z,1.60
2017-10-04T23:56:41.738Z,1.77
2017-10-04T23:59:09.193Z,2.37
